Time;durP1;ratioP1;P1;durP2;ratioP2;P2;SDS_P1;SDS_P2;PMS_P1;PMS_P2;Temp;Humidity;BMP_temperature;BMP_pressure;BME280_temperature;BME280_humidity;BME280_pressure;Samples;Min_cycle;Max_cycle;Signal;HPM_P1;HPM_P2
2022/06/21 00:00:17;;;;;;;7.63;5.53;;;;;;;15.92;100.00;96968.44;4996654;28;20034;-80
2022/06/21 00:02:44;;;;;;;12.48;5.15;;;;;;;16.04;100.00;96994.28;4996204;28;20069;-80
2022/06/21 00:05:23;;;;;;;7.47;4.95;;;;;;;16.08;100.00;96984.94;5012661;28;20034;-81
2022/06/21 00:07:51;;;;;;;10.02;5.25;;;;;;;16.04;100.00;96978.09;5012533;28;20037;-81
2022/06/21 00:10:18;;;;;;;8.50;5.40;;;;;;;15.99;100.00;96975.00;5000545;28;20030;-80
2022/06/21 00:12:45;;;;;;;5.40;4.70;;;;;;;15.95;100.00;96984.34;5012277;28;20029;-81
2022/06/21 00:15:11;;;;;;;6.22;5.25;;;;;;;15.93;100.00;96981.81;5013091;28;20034;-80
2022/06/21 00:17:39;;;;;;;11.52;5.50;;;;;;;15.93;100.00;96976.41;4996220;28;20033;-81
2022/06/21 00:20:05;;;;;;;8.20;4.82;;;;;;;15.85;100.00;96964.59;5012380;28;20092;-81
2022/06/21 00:22:31;;;;;;;7.22;4.55;;;;;;;15.88;100.00;96967.03;4996126;28;20034;-81
2022/06/21 00:24:56;;;;;;;6.70;5.13;;;;;;;15.93;100.00;96964.78;4995868;28;20026;-82
2022/06/21 00:27:22;;;;;;;10.20;5.25;;;;;;;15.77;100.00;96964.47;4987897;28;20042;-81
2022/06/21 00:29:47;;;;;;;8.43;5.05;;;;;;;15.70;100.00;96962.34;5003378;28;20026;-82
2022/06/21 00:32:15;;;;;;;11.82;6.22;;;;;;;15.57;100.00;96948.28;4983120;28;20026;-81
2022/06/21 00:34:42;;;;;;;11.48;6.10;;;;;;;15.72;100.00;96962.19;4984133;28;20471;-82
2022/06/21 00:37:14;;;;;;;13.18;6.85;;;;;;;15.70;100.00;96969.56;4994108;28;20030;-82
2022/06/21 00:39:39;;;;;;;12.52;7.05;;;;;;;15.74;100.00;96984.50;4995365;28;20524;-81
2022/06/21 00:42:16;;;;;;;10.10;7.10;;;;;;;15.65;100.00;96977.25;4982483;28;20061;-82
2022/06/21 00:44:47;;;;;;;9.70;7.20;;;;;;;15.64;100.00;96976.38;4967886;28;20536;-82
2022/06/21 00:47:37;;;;;;;11.40;7.35;;;;;;;15.64;100.00;96980.94;4993022;28;20033;-82
2022/06/21 00:50:15;;;;;;;11.30;6.82;;;;;;;15.60;100.00;96974.09;4972320;28;20124;-82
2022/06/21 00:53:03;;;;;;;9.63;6.97;;;;;;;15.60;100.00;96969.56;4991191;28;20030;-82
2022/06/21 00:55:49;;;;;;;9.23;7.07;;;;;;;15.62;100.00;96967.59;4960499;28;20482;-81
2022/06/21 00:58:17;;;;;;;8.30;6.63;;;;;;;15.53;100.00;96952.25;4990252;28;20057;-81
2022/06/21 01:01:03;;;;;;;10.50;5.70;;;;;;;15.49;100.00;96960.75;4995391;28;20022;-81
2022/06/21 01:03:36;;;;;;;7.57;4.95;;;;;;;15.34;100.00;96957.59;4987537;28;20166;-81
2022/06/21 01:06:08;;;;;;;6.72;5.07;;;;;;;15.22;100.00;96958.69;4975533;28;20474;-81
2022/06/21 01:08:38;;;;;;;9.43;5.10;;;;;;;15.14;100.00;96962.06;4955884;28;20031;-81
2022/06/21 01:11:19;;;;;;;7.57;5.25;;;;;;;15.17;100.00;96956.41;4972575;28;20058;-81
2022/06/21 01:13:49;;;;;;;8.50;5.32;;;;;;;15.12;100.00;96955.13;4981452;28;20149;-82
2022/06/21 01:16:15;;;;;;;8.55;5.68;;;;;;;15.15;100.00;96952.13;4978903;28;20498;-81
2022/06/21 01:18:42;;;;;;;8.10;5.85;;;;;;;15.15;100.00;96957.53;4998577;28;20418;-81
2022/06/21 01:21:10;;;;;;;13.80;9.00;;;;;;;15.23;100.00;96964.94;4975547;28;20034;-81
2022/06/21 01:23:51;;;;;;;14.82;9.73;;;;;;;15.33;100.00;96974.72;4975669;28;20034;-81
2022/06/21 01:26:35;;;;;;;14.80;10.65;;;;;;;15.26;100.00;96973.56;4992282;28;20030;-82
2022/06/21 01:29:02;;;;;;;15.57;9.38;;;;;;;15.25;100.00;96973.72;4995760;28;20415;-81
2022/06/21 01:31:29;;;;;;;11.95;7.95;;;;;;;15.25;100.00;96958.41;4975688;28;20120;-82
2022/06/21 01:33:55;;;;;;;9.82;7.75;;;;;;;15.18;100.00;96962.66;4991405;28;20114;-82
2022/06/21 01:36:28;;;;;;;9.45;6.82;;;;;;;15.04;100.00;96957.66;4992559;28;20025;-82
2022/06/21 01:39:04;;;;;;;11.30;5.95;;;;;;;15.00;100.00;96959.75;4970632;28;20478;-82
2022/06/21 01:41:45;;;;;;;12.07;5.40;;;;;;;14.88;100.00;96957.31;4978511;28;20528;-82
2022/06/21 01:44:15;;;;;;;8.25;5.60;;;;;;;14.85;100.00;96954.88;4978528;28;20156;-82
2022/06/21 01:46:40;;;;;;;10.38;5.80;;;;;;;14.87;100.00;96963.66;4998968;28;20022;-82
2022/06/21 01:49:10;;;;;;;6.18;5.43;;;;;;;14.83;100.00;96956.84;4982489;28;20038;-82
2022/06/21 01:51:42;;;;;;;8.98;6.18;;;;;;;14.71;100.00;96945.31;4974594;28;20085;-82
2022/06/21 01:54:10;;;;;;;7.30;6.15;;;;;;;14.73;100.00;96945.19;4982456;28;20148;-82
2022/06/21 01:56:38;;;;;;;9.00;6.43;;;;;;;14.76;100.00;96950.31;4983447;28;20029;-82
2022/06/21 01:59:30;;;;;;;13.30;6.20;;;;;;;14.71;100.00;96925.63;4975155;28;20482;-82
2022/06/21 02:02:01;;;;;;;9.35;6.55;;;;;;;14.89;100.00;96948.25;4999312;28;20030;-82
2022/06/21 02:04:31;;;;;;;9.00;6.37;;;;;;;14.85;100.00;96952.19;5000830;28;20065;-82
2022/06/21 02:07:01;;;;;;;12.75;6.25;;;;;;;14.78;100.00;96943.78;4983077;28;20026;-82
2022/06/21 02:09:31;;;;;;;7.15;6.05;;;;;;;14.83;100.00;96946.91;4991164;28;20037;-81
2022/06/21 02:12:02;;;;;;;11.55;5.93;;;;;;;14.87;100.00;96948.38;4990983;28;20022;-80
2022/06/21 02:14:33;;;;;;;9.07;6.77;;;;;;;14.75;100.00;96944.06;4976296;28;20070;-80
2022/06/21 02:17:22;;;;;;;11.00;6.05;;;;;;;14.78;100.00;96954.56;4989035;28;20073;-81
2022/06/21 02:20:10;;;;;;;9.13;5.72;;;;;;;14.83;100.00;96951.44;4991175;28;20065;-81
2022/06/21 02:22:37;;;;;;;11.38;6.13;;;;;;;14.80;100.00;96946.34;4990994;28;20067;-83
2022/06/21 02:25:03;;;;;;;8.75;6.03;;;;;;;14.79;100.00;96950.91;4996941;28;20116;-81
2022/06/21 02:27:33;;;;;;;10.80;6.38;;;;;;;14.77;100.00;96947.47;5000658;28;20045;-82
2022/06/21 02:30:01;;;;;;;9.63;5.88;;;;;;;14.81;100.00;96954.28;4975467;28;20113;-82
2022/06/21 02:32:28;;;;;;;8.32;5.63;;;;;;;14.75;100.00;96951.28;4974967;28;20493;-81
2022/06/21 02:35:08;;;;;;;8.60;6.25;;;;;;;14.65;100.00;96930.56;4979318;28;20065;-81
2022/06/21 02:37:35;;;;;;;10.77;6.40;;;;;;;14.73;100.00;96937.97;4985035;28;20046;-81
2022/06/21 02:40:03;;;;;;;11.00;6.18;;;;;;;14.74;100.00;96944.19;4989112;28;20033;-82
2022/06/21 02:42:31;;;;;;;10.27;6.57;;;;;;;14.70;100.00;96929.31;4958272;28;20030;-82
2022/06/21 02:45:14;;;;;;;10.23;6.10;;;;;;;14.72;100.00;96938.09;4974365;28;20026;-82
2022/06/21 02:47:43;;;;;;;13.52;6.45;;;;;;;14.57;100.00;96935.78;4992706;28;20497;-82
2022/06/21 02:50:36;;;;;;;13.10;6.70;;;;;;;14.69;100.00;96932.97;4979725;28;20098;-82
2022/06/21 02:53:07;;;;;;;9.38;6.25;;;;;;;14.70;100.00;96927.47;4991082;28;20390;-81
2022/06/21 02:55:43;;;;;;;9.70;6.72;;;;;;;14.74;100.00;96928.88;4974197;28;20041;-81
2022/06/21 02:58:31;;;;;;;10.25;6.30;;;;;;;14.81;100.00;96921.13;4990344;28;20512;-81
2022/06/21 03:00:59;;;;;;;11.93;6.55;;;;;;;14.87;100.00;96907.13;4995433;28;20524;-82
2022/06/21 03:03:27;;;;;;;12.32;7.03;;;;;;;14.85;100.00;96922.56;4996161;28;20122;-82
2022/06/21 03:05:56;;;;;;;13.30;7.15;;;;;;;14.77;100.00;96915.16;4997587;28;20022;-81
2022/06/21 03:08:22;;;;;;;12.30;6.78;;;;;;;14.81;100.00;96904.97;5014084;28;20104;-82
2022/06/21 03:10:49;;;;;;;17.27;8.10;;;;;;;14.90;100.00;96909.53;5010800;28;20068;-82
2022/06/21 03:13:21;;;;;;;17.70;9.02;;;;;;;14.93;100.00;96904.72;4968647;28;20045;-82
2022/06/21 03:15:59;;;;;;;20.27;8.20;;;;;;;14.99;100.00;96919.47;4978100;28;20030;-82
2022/06/21 03:18:29;;;;;;;14.68;7.28;;;;;;;14.87;100.00;96888.28;5001949;28;20033;-82
2022/06/21 03:20:55;;;;;;;14.23;7.22;;;;;;;14.97;100.00;96910.69;5005457;28;20420;-82
2022/06/21 03:23:22;;;;;;;15.13;7.45;;;;;;;14.94;100.00;96894.81;4989021;28;20029;-81
2022/06/21 03:25:57;;;;;;;27.50;7.70;;;;;;;15.10;100.00;96905.91;4978305;28;20054;-81
2022/06/21 03:28:28;;;;;;;19.60;7.32;;;;;;;15.08;100.00;96905.19;4993935;28;20509;-81
2022/06/21 03:31:09;;;;;;;16.15;7.57;;;;;;;15.06;100.00;96905.34;4986443;28;20121;-82
2022/06/21 03:33:36;;;;;;;20.45;7.85;;;;;;;15.14;100.00;96905.50;4977488;28;20042;-82
2022/06/21 03:36:07;;;;;;;17.25;7.68;;;;;;;15.21;100.00;96905.78;4977327;28;20030;-81
2022/06/21 03:38:34;;;;;;;19.63;8.93;;;;;;;15.20;100.00;96904.06;4977407;28;20084;-82
2022/06/21 03:43:51;;;;;;;21.80;8.25;;;;;;;15.32;100.00;96915.59;4993621;28;20029;-82
2022/06/21 03:46:29;;;;;;;19.25;7.75;;;;;;;15.37;100.00;96908.78;4993607;28;20026;-81
2022/06/21 03:49:00;;;;;;;16.00;7.35;;;;;;;15.45;100.00;96906.25;4993610;28;20500;-81
2022/06/21 03:51:31;;;;;;;15.68;7.60;;;;;;;15.55;100.00;96911.69;4977439;28;20502;-82
2022/06/21 03:54:06;;;;;;;12.30;7.53;;;;;;;15.62;100.00;96910.13;4974081;28;20031;-81
2022/06/21 03:56:57;;;;;;;17.33;7.03;;;;;;;15.68;100.00;96909.56;4977221;28;20057;-84
2022/06/21 03:59:40;;;;;;;13.32;6.65;;;;;;;15.79;100.00;96917.50;4977249;28;20056;-83
2022/06/21 04:02:14;;;;;;;10.43;6.90;;;;;;;15.78;100.00;96918.47;4961107;28;20037;-82
2022/06/21 04:04:50;;;;;;;12.75;7.57;;;;;;;15.67;100.00;96914.09;4976879;28;20030;-82
2022/06/21 04:07:30;;;;;;;12.75;7.60;;;;;;;15.77;100.00;96929.41;4994798;28;20027;-82
2022/06/21 04:10:02;;;;;;;22.30;8.40;;;;;;;15.85;100.00;96925.00;4977167;28;20022;-82
2022/06/21 04:12:42;;;;;;;16.05;8.68;;;;;;;15.97;100.00;96928.41;4977043;28;20038;-82
2022/06/21 04:15:32;;;;;;;17.52;8.73;;;;;;;16.05;100.00;96920.47;4961334;28;20043;-83
2022/06/21 04:18:14;;;;;;;20.02;8.80;;;;;;;16.17;100.00;96913.91;4977093;28;20022;-83
2022/06/21 04:20:54;;;;;;;20.70;8.27;;;;;;;16.24;100.00;96912.34;4992983;28;20034;-83
2022/06/21 04:23:27;;;;;;;26.15;8.40;;;;;;;16.33;100.00;96914.16;4976791;28;20046;-81
2022/06/21 04:25:55;;;;;;;23.67;8.45;;;;;;;16.41;100.00;96916.97;4993791;28;20097;-84
2022/06/21 04:28:31;;;;;;;30.20;10.00;;;;;;;16.51;100.00;96917.81;4991910;28;20081;-82
2022/06/21 04:31:09;;;;;;;28.58;9.80;;;;;;;16.60;100.00;96916.94;4996445;28;20899;-82
2022/06/21 04:33:39;;;;;;;17.33;9.23;;;;;;;16.65;100.00;96914.66;5013409;28;20022;-83
2022/06/21 04:36:17;;;;;;;26.38;9.98;;;;;;;16.78;100.00;96915.16;5012188;28;20553;-83
2022/06/21 04:38:58;;;;;;;26.58;9.10;;;;;;;16.93;100.00;96922.78;5012150;28;20228;-82
2022/06/21 04:41:30;;;;;;;19.10;8.70;;;;;;;17.00;100.00;96922.03;4998446;28;20085;-80
2022/06/21 04:44:12;;;;;;;23.23;9.15;;;;;;;17.10;100.00;96917.41;5037764;28;20038;-82
2022/06/21 04:46:48;;;;;;;16.73;9.93;;;;;;;17.18;100.00;96909.41;5011657;28;20061;-80
2022/06/21 04:49:18;;;;;;;17.00;10.20;;;;;;;17.29;100.00;96897.53;5028035;28;20038;-80
2022/06/21 04:51:51;;;;;;;18.50;10.13;;;;;;;18.08;100.00;96906.63;5011857;28;20096;-81
2022/06/21 04:54:24;;;;;;;25.35;10.38;;;;;;;18.69;98.30;96895.72;4995291;28;20461;-79
2022/06/21 04:57:12;;;;;;;23.30;10.25;;;;;;;20.12;89.95;96901.91;4994723;28;20026;-76
2022/06/21 04:59:48;;;;;;;24.65;9.13;;;;;;;21.74;78.51;96894.13;5044223;28;20461;-79
2022/06/21 05:02:22;;;;;;;20.83;8.65;;;;;;;22.57;71.53;96889.56;5011256;28;20386;-79
2022/06/21 05:04:53;;;;;;;14.13;8.32;;;;;;;23.68;66.92;96893.03;4993917;28;20096;-79
2022/06/21 05:07:22;;;;;;;19.73;8.90;;;;;;;24.01;63.89;96890.66;4995090;28;20112;-80
2022/06/21 05:09:49;;;;;;;14.77;7.50;;;;;;;25.52;58.27;96886.38;5024862;28;20550;-79
2022/06/21 05:12:22;;;;;;;24.25;8.43;;;;;;;24.36;61.23;96905.34;5011561;28;20466;-81
2022/06/21 05:14:51;;;;;;;15.02;7.78;;;;;;;26.25;55.76;96905.59;4995399;28;20030;-81
2022/06/21 05:17:18;;;;;;;11.63;6.28;;;;;;;27.03;51.86;96892.09;4994572;28;20032;-79
2022/06/21 05:19:47;;;;;;;17.35;7.55;;;;;;;28.09;49.81;96902.53;5010719;28;20057;-80
2022/06/21 05:22:27;;;;;;;14.05;7.32;;;;;;;28.48;48.39;96909.72;4978145;28;20036;-80
2022/06/21 05:24:54;;;;;;;10.07;7.60;;;;;;;28.00;48.38;96912.94;5011645;28;20113;-79
2022/06/21 05:27:38;;;;;;;17.60;7.18;;;;;;;29.62;45.01;96898.28;4994219;28;20560;-80
2022/06/21 05:30:16;;;;;;;10.95;6.85;;;;;;;30.20;43.03;96891.16;4977618;28;20022;-79
2022/06/21 05:33:05;;;;;;;10.48;7.40;;;;;;;30.25;43.32;96891.28;5010436;28;20024;-80
2022/06/21 05:35:36;;;;;;;19.85;7.30;;;;;;;30.93;41.28;96888.97;5010527;28;20041;-79
2022/06/21 05:38:18;;;;;;;9.53;6.63;;;;;;;31.30;40.20;96884.06;5010401;28;20029;-80
2022/06/21 05:40:52;;;;;;;11.85;6.60;;;;;;;31.66;39.30;96878.25;4994180;28;20037;-80
2022/06/21 05:43:20;;;;;;;8.80;6.88;;;;;;;31.06;39.64;96876.88;4994648;28;20032;-78
2022/06/21 05:46:16;;;;;;;14.02;6.53;;;;;;;32.58;37.77;96892.84;5010301;28;20033;-78
2022/06/21 05:48:44;;;;;;;9.32;6.65;;;;;;;33.37;36.25;96879.78;4985834;28;20037;-80
2022/06/21 05:51:16;;;;;;;9.98;6.30;;;;;;;33.48;35.88;96870.50;4993673;28;20405;-78
2022/06/21 05:54:05;;;;;;;11.25;6.18;;;;;;;34.05;34.48;96867.38;5010137;28;20034;-78
2022/06/21 05:56:34;;;;;;;13.07;6.57;;;;;;;34.46;34.08;96872.28;5011453;28;20060;-78
2022/06/21 05:59:08;;;;;;;17.45;7.03;;;;;;;33.59;35.58;96875.13;4994020;28;20030;-80
2022/06/21 06:01:47;;;;;;;23.38;7.45;;;;;;;33.43;35.99;96878.75;5010181;28;20033;-79
2022/06/21 06:04:29;;;;;;;21.90;7.18;;;;;;;32.34;37.16;96874.66;5010015;28;20124;-78
2022/06/21 06:06:56;;;;;;;20.83;6.80;;;;;;;32.72;37.18;96891.47;5009726;28;20088;-78
2022/06/21 06:09:26;;;;;;;27.33;8.02;;;;;;;34.03;36.11;96883.44;4993900;28;20541;-79
2022/06/21 06:12:04;;;;;;;37.60;7.25;;;;;;;35.33;34.12;96883.09;4993583;28;20034;-79
2022/06/21 06:14:58;;;;;;;40.67;7.20;;;;;;;34.71;34.49;96872.56;5009890;28;20034;-79
2022/06/21 06:17:45;;;;;;;27.35;7.20;;;;;;;33.37;36.00;96890.03;4992352;28;20046;-79
2022/06/21 06:20:33;;;;;;;19.38;7.45;;;;;;;33.05;37.29;96889.78;5009425;28;20049;-79
2022/06/21 06:23:15;;;;;;;34.78;8.23;;;;;;;34.65;34.76;96884.75;4993215;28;20125;-78
2022/06/21 06:26:05;;;;;;;24.70;8.70;;;;;;;35.18;34.15;96885.78;5009870;28;20029;-79
2022/06/21 06:28:51;;;;;;;20.10;7.40;;;;;;;34.57;34.18;96885.19;5006269;28;20042;-79
2022/06/21 06:31:23;;;;;;;26.00;7.53;;;;;;;33.25;36.66;96901.22;5013021;28;20054;-79
2022/06/21 06:33:55;;;;;;;25.65;7.45;;;;;;;33.66;36.11;96888.78;5030733;28;20096;-79
2022/06/21 06:36:33;;;;;;;33.85;8.13;;;;;;;35.03;34.39;96888.41;5029471;28;20036;-78
2022/06/21 06:39:00;;;;;;;27.17;6.30;;;;;;;34.61;33.69;96880.81;5033078;28;20577;-78
2022/06/21 06:41:37;;;;;;;26.90;7.07;;;;;;;34.92;33.35;96869.97;5033491;28;20020;-79
2022/06/21 06:44:06;;;;;;;13.00;5.72;;;;;;;35.22;32.98;96870.22;5016572;28;20444;-78
2022/06/21 06:46:37;;;;;;;8.90;5.40;;;;;;;36.38;31.02;96856.91;5000512;28;20029;-79
2022/06/21 06:49:21;;;;;;;11.00;5.65;;;;;;;37.23;30.22;96849.72;5033297;28;20052;-79
2022/06/21 06:52:09;;;;;;;10.80;5.35;;;;;;;36.71;30.79;96850.00;5033794;28;20485;-79
2022/06/21 06:54:50;;;;;;;13.00;5.07;;;;;;;37.21;30.89;96854.75;5033468;28;20022;-79
2022/06/21 06:57:32;;;;;;;5.88;4.57;;;;;;;36.86;31.39;96861.16;5034462;28;20100;-79
2022/06/21 06:59:59;;;;;;;5.53;4.63;;;;;;;37.48;30.53;96849.72;5049747;28;20488;-79
2022/06/21 07:02:37;;;;;;;9.57;4.72;;;;;;;37.31;30.94;96849.16;5029787;28;20029;-78
2022/06/21 07:05:07;;;;;;;14.20;5.25;;;;;;;37.66;30.97;96846.31;5013290;28;20108;-78
2022/06/21 07:07:46;;;;;;;7.65;5.40;;;;;;;37.10;31.60;96858.69;5021766;28;20112;-78
2022/06/21 07:10:17;;;;;;;10.63;4.35;;;;;;;38.55;30.17;96850.94;5014093;28;20030;-78
2022/06/21 07:12:42;;;;;;;25.77;7.35;;;;;;;38.22;30.34;96852.50;5016621;28;20092;-78
2022/06/21 07:15:09;;;;;;;12.93;5.93;;;;;;;38.16;29.96;96850.88;5033039;28;20489;-79
2022/06/21 07:17:38;;;;;;;11.10;5.63;;;;;;;36.63;31.27;96864.50;5049503;28;20033;-78
2022/06/21 07:20:13;;;;;;;19.83;6.25;;;;;;;37.18;31.82;96869.28;5012692;28;20029;-78
2022/06/21 07:22:39;;;;;;;15.55;5.57;;;;;;;35.68;32.36;96852.72;5012639;28;20107;-78
2022/06/21 07:25:19;;;;;;;10.95;5.22;;;;;;;36.12;32.17;96863.50;5029276;28;20473;-77
2022/06/21 07:27:47;;;;;;;12.45;5.00;;;;;;;37.24;31.50;96863.41;5016517;28;20049;-78
2022/06/21 07:30:14;;;;;;;14.23;5.05;;;;;;;35.86;32.80;96863.41;5013702;28;20040;-77
2022/06/21 07:32:53;;;;;;;15.95;5.00;;;;;;;36.42;31.17;96853.25;5012872;28;20061;-78
2022/06/21 07:35:32;;;;;;;12.98;5.25;;;;;;;36.99;31.24;96862.56;5029070;28;20459;-78
2022/06/21 07:38:06;;;;;;;67.85;7.25;;;;;;;38.43;29.08;96844.88;5029307;28;20107;-78
2022/06/21 07:40:36;;;;;;;95.95;10.85;;;;;;;38.21;29.64;96853.63;5004832;28;20025;-79
2022/06/21 07:43:16;;;;;;;18.55;4.80;;;;;;;39.33;28.24;96842.50;5028466;28;20017;-78
2022/06/21 07:45:41;;;;;;;13.85;5.00;;;;;;;39.77;28.12;96854.38;5032394;28;20088;-78
2022/06/21 07:48:53;;;;;;;10.93;4.88;;;;;;;39.35;28.65;96848.63;5033228;28;20547;-79
2022/06/21 07:51:32;;;;;;;17.33;5.68;;;;;;;38.76;29.11;96855.28;4954562;28;20536;-79
2022/06/21 07:54:42;;;;;;;11.90;4.85;;;;;;;39.89;28.49;96851.16;4956091;28;20057;-78
2022/06/21 07:57:12;;;;;;;12.50;4.88;;;;;;;39.55;28.08;96863.28;4949319;29;20499;-78
2022/06/21 07:59:43;;;;;;;11.18;4.72;;;;;;;39.43;29.24;96864.81;4953047;29;20023;-78
2022/06/21 08:08:32;;;;;;;15.55;5.18;;;;;;;42.73;25.85;96854.38;5032944;28;20099;-79
2022/06/21 08:11:01;;;;;;;8.05;4.55;;;;;;;43.47;25.63;96858.44;5032920;28;20059;-79
2022/06/21 08:13:28;;;;;;;6.82;4.57;;;;;;;44.38;24.56;96855.03;5015934;28;20068;-79
2022/06/21 08:16:09;;;;;;;16.70;4.88;;;;;;;44.56;24.28;96851.13;5031751;28;20468;-79
2022/06/21 08:18:53;;;;;;;;;;;;;;;44.93;23.25;96844.00;5031795;28;20025;-80
2022/06/21 08:21:22;;;;;;;8.07;4.10;;;;;;;44.28;23.22;96842.06;5032956;28;19913;-80
2022/06/21 08:24:01;;;;;;;5.50;3.92;;;;;;;43.44;23.94;96836.53;5015253;28;20021;-79
2022/06/21 08:27:13;;;;;;;10.02;4.82;;;;;;;43.64;24.83;96832.34;5031353;28;20029;-79
2022/06/21 08:29:43;;;;;;;19.02;4.95;;;;;;;42.31;26.02;96835.88;5028778;28;20045;-79
2022/06/21 08:32:23;;;;;;;11.23;5.05;;;;;;;41.09;28.36;96842.19;5014782;28;20029;-80
2022/06/21 08:34:52;;;;;;;15.32;4.80;;;;;;;42.07;27.08;96849.31;5031717;28;20040;-80
2022/06/21 08:37:45;;;;;;;8.55;4.75;;;;;;;40.50;28.43;96851.19;5032547;28;20494;-80
2022/06/21 08:40:23;;;;;;;11.80;4.97;;;;;;;40.18;28.03;96840.69;5031487;28;20504;-79
2022/06/21 08:43:13;;;;;;;23.00;5.47;;;;;;;40.00;28.74;96853.53;5014903;28;20063;-80
2022/06/21 08:45:45;;;;;;;17.33;5.68;;;;;;;39.53;28.11;96845.13;5012875;28;20044;-79
2022/06/21 08:48:32;;;;;;;13.00;4.63;;;;;;;37.80;31.26;96861.34;5035056;28;20025;-79
2022/06/21 08:51:14;;;;;;;9.82;4.82;;;;;;;37.32;33.01;96862.81;5018597;28;20038;-79
2022/06/21 08:53:52;;;;;;;12.68;4.80;;;;;;;36.32;34.81;96864.41;5027755;28;20025;-79
2022/06/21 08:56:22;;;;;;;10.88;4.60;;;;;;;37.33;34.70;96866.47;5027898;28;20115;-79
2022/06/21 08:58:51;;;;;;;9.27;4.80;;;;;;;38.57;31.69;96859.91;5036078;28;20469;-79
2022/06/21 09:01:24;;;;;;;4.95;4.22;;;;;;;39.85;29.12;96842.50;5012387;28;20053;-79
2022/06/21 09:04:17;;;;;;;7.70;5.40;;;;;;;39.27;31.36;96855.72;5025118;28;20496;-79
2022/06/21 09:07:01;;;;;;;10.52;4.50;;;;;;;39.85;30.98;96864.94;5014183;28;20515;-80
2022/06/21 09:09:29;;;;;;;10.35;4.30;;;;;;;41.38;28.97;96858.84;5031766;28;20037;-83
2022/06/21 09:12:14;;;;;;;12.70;4.72;;;;;;;41.53;28.78;96852.94;5014254;28;20107;-80
2022/06/21 09:14:57;;;;;;;6.75;4.22;;;;;;;42.38;28.27;96850.34;5031669;28;20029;-80
2022/06/21 09:17:29;;;;;;;5.93;4.40;;;;;;;42.13;25.84;96832.03;5031781;28;20113;-80
2022/06/21 09:20:06;;;;;;;19.80;4.60;;;;;;;40.78;28.57;96853.03;5030858;28;20039;-80
2022/06/21 09:22:42;;;;;;;11.18;5.40;;;;;;;41.38;28.29;96859.63;5031663;28;20113;-80
2022/06/21 09:25:40;;;;;;;8.80;4.20;;;;;;;41.55;29.00;96853.44;5030475;28;20037;-80
2022/06/21 09:29:04;;;;;;;14.75;4.97;;;;;;;42.04;27.95;96853.59;5018694;28;20049;-80
2022/06/21 09:31:36;;;;;;;6.43;4.10;;;;;;;40.20;28.88;96846.03;4966968;28;20125;-81
2022/06/21 09:34:01;;;;;;;14.65;4.57;;;;;;;39.26;30.77;96853.22;4955227;28;20034;-79
2022/06/21 09:36:52;;;;;;;5.15;4.40;;;;;;;38.57;31.04;96840.31;5005618;28;20136;-80
2022/06/21 09:39:30;;;;;;;7.38;4.50;;;;;;;38.78;30.69;96844.63;5014553;28;20057;-80
2022/06/21 09:42:13;;;;;;;8.73;4.53;;;;;;;38.52;31.32;96839.53;5013722;28;20025;-82
2022/06/21 09:44:39;;;;;;;10.13;4.60;;;;;;;38.53;31.60;96853.19;5030263;28;20564;-79
2022/06/21 09:47:40;;;;;;;9.00;5.03;;;;;;;38.03;32.18;96856.25;5031345;28;20108;-80
2022/06/21 09:50:15;;;;;;;11.70;5.50;;;;;;;38.93;30.24;96844.53;4951263;29;20031;-80
2022/06/21 09:52:50;;;;;;;7.80;4.82;;;;;;;40.50;28.23;96825.94;5035219;28;20463;-81
2022/06/21 09:55:24;;;;;;;12.40;4.72;;;;;;;39.94;28.87;96837.91;5038744;28;20021;-81
2022/06/21 09:57:57;;;;;;;17.70;5.18;;;;;;;39.01;30.37;96834.66;5038426;28;20021;-81
2022/06/21 10:00:37;;;;;;;9.40;5.07;;;;;;;37.84;31.46;96837.28;5013723;28;20447;-80
2022/06/21 10:03:34;;;;;;;6.95;4.90;;;;;;;40.16;28.49;96828.13;5010288;28;20029;-81
2022/06/21 10:06:04;;;;;;;20.80;5.53;;;;;;;42.42;26.77;96826.09;5046786;28;20484;-81
2022/06/21 10:08:59;;;;;;;19.50;9.27;;;;;;;40.90;27.28;96821.69;5022810;28;20513;-80
2022/06/21 10:11:28;;;;;;;6.13;4.55;;;;;;;39.17;28.93;96826.97;5010985;28;20088;-80
2022/06/21 10:14:02;;;;;;;17.67;5.43;;;;;;;39.61;28.72;96824.00;5022434;28;20065;-81
2022/06/21 10:17:16;;;;;;;7.43;5.53;;;;;;;40.46;27.93;96820.09;5010412;28;20037;-82
2022/06/21 10:19:52;;;;;;;8.40;4.90;;;;;;;41.28;27.14;96826.13;5011360;28;20044;-80
2022/06/21 10:22:51;;;;;;;8.20;5.88;;;;;;;40.29;29.62;96841.41;5013728;28;20050;-81
2022/06/21 10:25:33;;;;;;;9.02;5.57;;;;;;;38.51;31.93;96841.47;5030821;28;20083;-80
2022/06/21 10:28:10;;;;;;;6.88;5.18;;;;;;;37.93;32.23;96835.59;5014967;28;20204;-80
2022/06/21 10:30:45;;;;;;;10.25;5.90;;;;;;;38.56;31.68;96835.84;5029458;28;20186;-80
2022/06/21 10:33:19;;;;;;;9.00;5.90;;;;;;;38.78;30.76;96830.63;5030967;28;20033;-80
2022/06/21 10:36:03;;;;;;;8.00;5.47;;;;;;;38.80;31.07;96830.38;5014508;28;20029;-81
2022/06/21 10:38:32;;;;;;;13.48;7.47;;;;;;;39.29;30.94;96844.22;5012891;28;20033;-81
2022/06/21 10:41:13;;;;;;;10.52;6.03;;;;;;;40.06;29.28;96827.09;5019429;28;20481;-80
2022/06/21 10:44:10;;;;;;;8.60;5.60;;;;;;;40.88;28.63;96833.25;5035246;28;20183;-81
2022/06/21 10:46:44;;;;;;;11.20;5.75;;;;;;;41.60;27.85;96826.06;5022835;28;20049;-80
2022/06/21 10:49:41;;;;;;;10.68;5.75;;;;;;;42.72;26.36;96812.44;5034714;28;20112;-81
2022/06/21 10:52:26;;;;;;;12.52;5.40;;;;;;;42.52;27.00;96819.34;5023655;28;20037;-81
2022/06/21 10:55:16;;;;;;;6.93;5.82;;;;;;;41.69;27.48;96823.38;5030926;28;20029;-80
2022/06/21 10:57:57;;;;;;;14.23;6.23;;;;;;;42.18;26.59;96819.03;5013469;28;20026;-80
2022/06/21 11:03:51;;;;;;;9.27;5.38;;;;;;;42.30;26.79;96808.88;5029934;28;20150;-82
2022/06/21 11:06:23;;;;;;;18.75;6.10;;;;;;;42.83;26.64;96803.44;5031349;28;20029;-82
2022/06/21 11:09:03;;;;;;;10.15;5.72;;;;;;;42.52;26.07;96802.47;5030683;28;20457;-80
2022/06/21 11:11:31;;;;;;;23.25;5.90;;;;;;;43.47;25.01;96804.06;5013070;28;20132;-81
2022/06/21 11:14:08;;;;;;;8.25;5.50;;;;;;;42.93;25.69;96799.53;5030499;28;20037;-81
2022/06/21 11:16:40;;;;;;;9.10;5.63;;;;;;;42.39;26.10;96794.94;5030983;28;20083;-81
2022/06/21 11:19:14;;;;;;;7.28;5.75;;;;;;;38.32;29.97;96798.50;5030870;28;20033;-80
2022/06/21 11:22:03;;;;;;;16.63;6.15;;;;;;;38.45;30.88;96804.34;5030880;28;20053;-79
2022/06/21 11:24:54;;;;;;;10.65;5.82;;;;;;;39.75;29.83;96816.59;5033400;28;20029;-80
2022/06/21 11:27:29;;;;;;;16.48;6.03;;;;;;;41.02;28.88;96820.09;5029824;28;20045;-81
2022/06/21 11:30:09;;;;;;;10.05;6.20;;;;;;;39.90;29.34;96813.59;5015077;28;20109;-81
2022/06/21 11:32:41;;;;;;;13.68;6.15;;;;;;;39.46;29.64;96823.06;5013221;28;20030;-81
2022/06/21 11:35:26;;;;;;;9.38;6.72;;;;;;;39.55;29.88;96812.88;5013768;28;20113;-81
2022/06/21 11:38:35;;;;;;;8.77;6.05;;;;;;;39.44;29.36;96816.09;5014897;28;20112;-81
2022/06/21 11:44:13;;;;;;;11.40;6.15;;;;;;;41.06;27.89;96809.94;5014633;28;20512;-82
2022/06/21 11:46:57;;;;;;;9.18;6.35;;;;;;;40.01;28.24;96815.97;5013431;28;20030;-81
2022/06/21 11:49:26;;;;;;;13.55;6.00;;;;;;;40.20;28.21;96809.59;5012979;28;20041;-80
2022/06/21 11:52:20;;;;;;;11.93;5.97;;;;;;;41.05;27.99;96811.06;5005228;28;20030;-81
2022/06/21 11:55:02;;;;;;;11.15;6.00;;;;;;;42.23;26.01;96799.22;5014546;28;20034;-81
2022/06/21 11:57:41;;;;;;;13.13;5.90;;;;;;;42.49;26.36;96803.09;5007225;28;20034;-82
2022/06/21 12:00:15;;;;;;;8.50;5.68;;;;;;;42.56;25.32;96798.72;5012138;28;20493;-82
2022/06/21 12:03:03;;;;;;;16.00;6.00;;;;;;;41.39;27.02;96810.75;5014177;28;20180;-82
2022/06/21 12:05:42;;;;;;;12.98;6.22;;;;;;;40.90;28.46;96799.25;5013215;28;20044;-82
2022/06/21 12:08:50;;;;;;;12.43;5.82;;;;;;;42.19;26.73;96801.00;5012323;28;20076;-82
2022/06/21 12:11:47;;;;;;;18.95;6.05;;;;;;;42.60;26.46;96796.13;5003844;28;20535;-82
2022/06/21 12:14:29;;;;;;;13.15;5.55;;;;;;;42.02;26.72;96799.66;5014150;28;20361;-82
2022/06/21 12:17:09;;;;;;;17.30;6.00;;;;;;;40.96;28.17;96793.25;5029828;28;20029;-83
2022/06/21 12:19:41;;;;;;;18.30;5.70;;;;;;;41.75;27.45;96808.06;5013362;28;20113;-83
2022/06/21 12:22:09;;;;;;;11.60;5.88;;;;;;;41.81;27.40;96814.47;5013993;28;20029;-84